Time;durP1;ratioP1;P1;durP2;ratioP2;P2;SDS_P1;SDS_P2;PMS_P1;PMS_P2;Temp;Humidity;BMP_temperature;BMP_pressure;BME280_temperature;BME280_humidity;BME280_pressure;Samples;Min_cycle;Max_cycle;Signal;HPM_P1;HPM_P2
2022/04/05 00:00:51;;;;;;;15.90;13.80;;;;;;;2.69;98.88;97696.85;105131;1268;62096;-73
2022/04/05 00:03:18;;;;;;;15.50;13.90;;;;;;;2.69;98.82;97690.41;105313;1268;75450;-75
2022/04/05 00:05:44;;;;;;;16.40;14.00;;;;;;;2.67;98.59;97686.80;105319;1268;69353;-73
2022/04/05 00:08:12;;;;;;;16.00;14.30;;;;;;;2.66;98.71;97681.92;105367;1268;73996;-71
2022/04/05 00:10:38;;;;;;;15.00;13.10;;;;;;;2.65;99.46;97675.86;105315;1268;61320;-72
2022/04/05 00:13:07;;;;;;;14.60;13.10;;;;;;;2.63;99.98;97676.33;105361;1268;61244;-73
2022/04/05 00:15:35;;;;;;;18.10;15.50;;;;;;;2.60;99.73;97674.69;104992;1268;74951;-73
2022/04/05 00:18:02;;;;;;;17.80;14.80;;;;;;;2.59;99.63;97676.52;105371;1268;70453;-72
2022/04/05 00:20:29;;;;;;;17.10;14.80;;;;;;;2.58;99.90;97673.44;105341;1268;72926;-73
2022/04/05 00:22:58;;;;;;;16.30;14.00;;;;;;;2.56;100.00;97668.13;105288;1268;61275;-72
2022/04/05 00:25:25;;;;;;;15.40;13.80;;;;;;;2.53;100.00;97668.10;104614;1268;1003795;-73
2022/04/05 00:27:52;;;;;;;16.00;14.20;;;;;;;2.51;100.00;97666.79;105051;1268;75401;-73
2022/04/05 00:30:19;;;;;;;15.30;13.70;;;;;;;2.50;100.00;97661.99;105374;1268;70028;-73
2022/04/05 00:32:46;;;;;;;15.40;13.40;;;;;;;2.47;100.00;97658.09;105307;1267;73708;-73
2022/04/05 00:35:13;;;;;;;18.20;15.70;;;;;;;2.44;100.00;97649.84;105327;1268;61361;-72
2022/04/05 00:37:39;;;;;;;16.70;14.70;;;;;;;2.44;100.00;97650.06;105055;1268;61853;-72
2022/04/05 00:40:07;;;;;;;16.10;14.00;;;;;;;2.43;100.00;97644.31;105298;1268;76283;-73
2022/04/05 00:42:36;;;;;;;16.00;14.10;;;;;;;2.41;100.00;97643.88;105339;1268;70578;-72
2022/04/05 00:45:09;;;;;;;15.50;13.70;;;;;;;2.40;100.00;97647.30;105358;1268;74688;-72
2022/04/05 00:47:37;;;;;;;15.80;14.10;;;;;;;2.39;100.00;97642.95;105426;1267;61262;-72
2022/04/05 00:50:05;;;;;;;16.50;14.80;;;;;;;2.37;100.00;97638.47;105496;1267;62039;-73
2022/04/05 00:52:32;;;;;;;18.20;14.10;;;;;;;2.37;100.00;97637.08;105416;1268;75416;-72
2022/04/05 00:54:59;;;;;;;18.70;16.10;;;;;;;2.38;100.00;97637.91;105317;1268;70313;-73
2022/04/05 00:57:28;;;;;;;18.40;15.50;;;;;;;2.37;100.00;97632.69;105099;1268;283662;-72
2022/04/05 01:00:00;;;;;;;17.50;15.40;;;;;;;2.37;100.00;97629.69;105425;1268;61336;-73
2022/04/05 01:02:36;;;;;;;18.20;16.20;;;;;;;2.38;100.00;97626.67;105006;1268;62367;-72
2022/04/05 01:05:03;;;;;;;17.30;15.40;;;;;;;2.38;100.00;97623.20;105353;1268;76395;-73
2022/04/05 01:07:33;;;;;;;17.30;15.50;;;;;;;2.37;100.00;97626.42;105329;1268;70364;-73
2022/04/05 01:09:59;;;;;;;18.20;16.40;;;;;;;2.36;100.00;97625.79;105353;1268;74331;-72
2022/04/05 01:12:26;;;;;;;17.90;15.80;;;;;;;2.35;100.00;97623.00;105298;1268;61221;-72
2022/04/05 01:14:53;;;;;;;16.90;15.20;;;;;;;2.33;100.00;97624.86;105316;1268;62379;-72
2022/04/05 01:17:20;;;;;;;18.40;15.00;;;;;;;2.30;100.00;97623.66;105067;1268;75735;-72
2022/04/05 01:19:47;;;;;;;20.10;16.10;;;;;;;2.27;100.00;97616.45;105322;1267;70385;-72
2022/04/05 01:22:14;;;;;;;18.80;16.70;;;;;;;2.25;100.00;97628.29;105321;1268;73601;-72
2022/04/05 01:24:40;;;;;;;15.40;13.70;;;;;;;2.23;100.00;97621.21;105339;1268;61350;-72
2022/04/05 01:27:07;;;;;;;15.20;13.70;;;;;;;2.20;100.00;97620.84;105388;1268;62170;-73
2022/04/05 01:29:35;;;;;;;17.00;15.30;;;;;;;2.18;100.00;97622.36;105503;1267;75863;-73
2022/04/05 01:32:07;;;;;;;14.70;13.20;;;;;;;2.16;100.00;97618.09;105327;1267;70354;-73
2022/04/05 01:34:36;;;;;;;16.00;14.30;;;;;;;2.15;100.00;97618.51;105140;1268;73652;-73
2022/04/05 01:37:12;;;;;;;18.20;16.40;;;;;;;2.14;100.00;97617.84;105366;1268;61391;-73
2022/04/05 01:39:42;;;;;;;16.60;13.80;;;;;;;2.14;100.00;97618.71;105123;1268;61218;-74
2022/04/05 01:42:14;;;;;;;16.50;14.80;;;;;;;2.14;100.00;97619.25;105357;1268;75383;-73
2022/04/05 01:44:43;;;;;;;15.30;13.70;;;;;;;2.13;100.00;97616.54;105411;1268;70302;-73
2022/04/05 01:47:13;;;;;;;14.60;13.20;;;;;;;2.12;100.00;97617.41;105401;1268;74192;-73
2022/04/05 01:49:42;;;;;;;15.70;14.10;;;;;;;2.12;100.00;97609.90;105511;1268;61227;-73
2022/04/05 01:52:10;;;;;;;16.90;15.00;;;;;;;2.12;100.00;97607.64;105423;1268;61262;-73
2022/04/05 01:54:38;;;;;;;15.20;13.70;;;;;;;2.11;100.00;97604.70;105510;1268;76608;-74
2022/04/05 01:57:06;;;;;;;15.70;14.10;;;;;;;2.11;100.00;97604.21;105519;1268;68474;-72
2022/04/05 01:59:34;;;;;;;16.00;14.40;;;;;;;2.11;100.00;97604.04;105591;1268;73372;-73
2022/04/05 02:02:06;;;;;;;15.00;13.50;;;;;;;2.10;100.00;97597.91;105594;1268;61390;-73
2022/04/05 02:04:34;;;;;;;15.10;13.60;;;;;;;2.10;100.00;97594.94;105286;1268;61803;-73
2022/04/05 02:07:01;;;;;;;14.60;13.10;;;;;;;2.10;100.00;97600.73;105418;1268;75330;-73
2022/04/05 02:09:27;;;;;;;16.00;13.80;;;;;;;2.09;100.00;97596.39;105394;1268;70423;-73
2022/04/05 02:11:54;;;;;;;14.50;13.10;;;;;;;2.10;100.00;97598.81;105359;1267;74435;-73
2022/04/05 02:14:21;;;;;;;15.10;13.50;;;;;;;2.10;100.00;97593.23;105380;1268;61366;-72
2022/04/05 02:16:47;;;;;;;16.50;14.80;;;;;;;2.09;100.00;97584.66;105284;1268;61371;-71
2022/04/05 02:19:14;;;;;;;17.50;15.40;;;;;;;2.09;100.00;97584.33;105344;1268;76349;-72
2022/04/05 02:21:41;;;;;;;17.00;15.20;;;;;;;2.09;100.00;97577.66;105356;1268;68988;-73
2022/04/05 02:24:07;;;;;;;14.80;13.20;;;;;;;2.10;100.00;97578.84;105287;1267;73671;-73
2022/04/05 02:26:34;;;;;;;17.10;15.40;;;;;;;2.10;100.00;97576.54;105312;1268;61325;-72
2022/04/05 02:29:00;;;;;;;16.40;14.70;;;;;;;2.11;100.00;97575.14;105326;1268;61139;-71
2022/04/05 02:31:28;;;;;;;14.00;12.70;;;;;;;2.10;100.00;97570.57;105356;1268;75222;-72
2022/04/05 02:33:54;;;;;;;16.10;14.30;;;;;;;2.11;100.00;97569.16;105313;1268;68460;-73
2022/04/05 02:36:21;;;;;;;16.80;15.00;;;;;;;2.12;100.00;97576.83;105307;1268;74217;-73
2022/04/05 02:38:47;;;;;;;16.20;14.50;;;;;;;2.11;100.00;97568.45;105319;1268;61301;-73
2022/04/05 02:41:14;;;;;;;17.00;15.00;;;;;;;2.11;100.00;97567.23;105304;1268;61275;-74
2022/04/05 02:43:42;;;;;;;18.20;16.40;;;;;;;2.11;100.00;97558.47;105297;1268;76507;-70
2022/04/05 02:46:11;;;;;;;15.30;13.70;;;;;;;2.12;100.00;97563.34;105313;1268;69330;-71
2022/04/05 02:48:43;;;;;;;14.50;12.90;;;;;;;2.13;100.00;97557.84;105299;1268;74440;-72
2022/04/05 02:51:13;;;;;;;17.30;15.00;;;;;;;2.12;100.00;97561.20;105341;1268;61387;-72
2022/04/05 02:53:42;;;;;;;16.20;14.40;;;;;;;2.12;100.00;97560.14;105587;1268;61259;-73
2022/04/05 02:56:09;;;;;;;16.60;14.90;;;;;;;2.14;100.00;97561.98;105351;1268;76236;-72
2022/04/05 02:58:36;;;;;;;17.10;15.00;;;;;;;2.16;100.00;97564.51;105310;1268;70442;-72
2022/04/05 03:01:04;;;;;;;16.20;14.50;;;;;;;2.17;100.00;97563.58;105313;1268;74551;-72
2022/04/05 03:03:32;;;;;;;17.80;15.70;;;;;;;2.17;100.00;97559.84;105358;1268;61454;-72
2022/04/05 03:06:00;;;;;;;18.80;16.70;;;;;;;2.18;100.00;97564.71;105533;1268;61219;-72
2022/04/05 03:08:26;;;;;;;17.10;15.40;;;;;;;2.18;100.00;97562.27;105243;1268;75382;-73
2022/04/05 03:10:53;;;;;;;17.10;15.30;;;;;;;2.18;100.00;97561.95;105345;1268;69248;-73
2022/04/05 03:13:20;;;;;;;15.40;13.80;;;;;;;2.17;100.00;97558.98;105336;1268;74573;-72
2022/04/05 03:15:47;;;;;;;15.50;13.80;;;;;;;2.16;100.00;97552.02;105329;1268;61515;-73
2022/04/05 03:18:14;;;;;;;17.90;15.10;;;;;;;2.18;100.00;97553.17;105139;1268;61806;-73
2022/04/05 03:20:40;;;;;;;15.20;13.70;;;;;;;2.21;100.00;97559.66;105352;1268;75356;-72
2022/04/05 03:23:07;;;;;;;15.60;14.00;;;;;;;2.21;100.00;97560.70;105331;1268;69384;-72
2022/04/05 03:25:34;;;;;;;17.30;15.50;;;;;;;2.23;100.00;97556.76;105315;1268;72773;-72
2022/04/05 03:28:02;;;;;;;14.90;13.20;;;;;;;2.26;100.00;97556.92;105336;1268;61295;-73
2022/04/05 03:30:28;;;;;;;15.70;14.10;;;;;;;2.28;100.00;97557.67;105335;1268;61833;-73
2022/04/05 03:32:55;;;;;;;16.80;15.00;;;;;;;2.31;100.00;97555.40;105298;1268;75356;-73
2022/04/05 03:35:22;;;;;;;17.90;16.00;;;;;;;2.34;100.00;97553.50;105351;1268;69258;-72
2022/04/05 03:37:49;;;;;;;16.00;14.40;;;;;;;2.37;100.00;97559.43;105308;1268;74334;-74
2022/04/05 03:40:15;;;;;;;13.00;11.60;;;;;;;2.40;100.00;97552.97;105092;1268;61478;-73
2022/04/05 03:42:42;;;;;;;15.40;13.90;;;;;;;2.43;100.00;97544.59;105240;1268;61310;-73
2022/04/05 03:45:10;;;;;;;14.80;13.30;;;;;;;2.45;100.00;97552.70;105166;1268;74524;-73
2022/04/05 03:47:36;;;;;;;16.50;14.60;;;;;;;2.46;100.00;97549.30;105316;1268;69252;-73
2022/04/05 03:50:03;;;;;;;17.40;15.10;;;;;;;2.47;100.00;97548.38;105308;1268;73376;-74
2022/04/05 03:52:30;;;;;;;15.90;14.20;;;;;;;2.47;100.00;97544.33;105299;1268;62792;-72
2022/04/05 03:54:56;;;;;;;18.10;16.20;;;;;;;2.48;100.00;97539.02;105329;1268;62051;-72
2022/04/05 03:57:23;;;;;;;20.20;17.80;;;;;;;2.49;100.00;97538.61;105327;1268;76293;-72
2022/04/05 03:59:50;;;;;;;18.40;16.50;;;;;;;2.51;100.00;97537.98;105314;1268;70556;-73
2022/04/05 04:02:17;;;;;;;15.50;13.80;;;;;;;2.53;100.00;97542.27;105060;1268;73370;-72
2022/04/05 04:04:43;;;;;;;15.40;13.80;;;;;;;2.54;100.00;97541.48;105321;1268;61166;-72
2022/04/05 04:07:10;;;;;;;17.80;15.80;;;;;;;2.54;100.00;97543.02;105381;1268;62066;-73
2022/04/05 04:09:37;;;;;;;15.90;14.20;;;;;;;2.57;100.00;97542.32;105312;1268;76340;-73
2022/04/05 04:12:05;;;;;;;13.70;12.10;;;;;;;2.58;100.00;97549.64;105092;1268;70414;-73
2022/04/05 04:14:33;;;;;;;15.10;13.70;;;;;;;2.58;100.00;97546.65;105352;1268;74755;-73
2022/04/05 04:16:59;;;;;;;14.90;13.30;;;;;;;2.60;100.00;97547.63;105353;1268;61285;-72
2022/04/05 04:19:26;;;;;;;14.50;13.10;;;;;;;2.61;100.00;97544.39;105324;1268;61127;-73
2022/04/05 04:21:52;;;;;;;14.00;12.60;;;;;;;2.63;100.00;97549.39;105282;1268;75406;-73
2022/04/05 04:24:19;;;;;;;13.40;11.90;;;;;;;2.63;100.00;97551.11;105296;1268;61377;-73
2022/04/05 04:26:46;;;;;;;13.60;12.30;;;;;;;2.64;100.00;97552.47;105300;1268;73373;-73
2022/04/05 04:29:14;;;;;;;15.50;13.90;;;;;;;2.64;100.00;97548.44;105331;1268;61272;-73
2022/04/05 04:31:41;;;;;;;16.90;15.20;;;;;;;2.64;100.00;97550.91;105371;1268;61253;-73
2022/04/05 04:34:08;;;;;;;15.30;13.70;;;;;;;2.65;100.00;97548.22;105350;1268;76355;-71
2022/04/05 04:36:35;;;;;;;12.60;11.30;;;;;;;2.65;100.00;97548.17;105071;1268;70507;-73
2022/04/05 04:39:02;;;;;;;13.30;11.90;;;;;;;2.67;100.00;97550.18;105329;1268;73347;-73
2022/04/05 04:41:28;;;;;;;12.30;11.10;;;;;;;2.70;100.00;97550.75;105333;1268;61364;-73
2022/04/05 04:43:55;;;;;;;13.60;12.20;;;;;;;2.71;100.00;97556.09;105356;1268;61271;-73
2022/04/05 04:46:22;;;;;;;13.40;12.00;;;;;;;2.73;100.00;97543.16;105342;1268;75625;-73
2022/04/05 04:48:48;;;;;;;16.10;14.40;;;;;;;2.75;100.00;97548.99;105390;1268;70008;-72
2022/04/05 04:51:15;;;;;;;14.80;13.30;;;;;;;2.77;100.00;97550.47;105309;1267;74505;-72
2022/04/05 04:53:42;;;;;;;13.90;12.50;;;;;;;2.79;100.00;97541.77;105314;1267;61236;-72
2022/04/05 04:56:09;;;;;;;13.60;12.20;;;;;;;2.82;100.00;97546.54;105391;1268;61441;-72
2022/04/05 04:58:37;;;;;;;15.00;12.30;;;;;;;2.85;100.00;97548.64;105324;1268;76464;-73
2022/04/05 05:01:03;;;;;;;13.90;12.50;;;;;;;2.86;100.00;97551.84;105497;1267;69328;-73
2022/04/05 05:03:30;;;;;;;12.80;11.50;;;;;;;2.89;100.00;97550.85;105313;1268;74608;-73
2022/04/05 05:05:58;;;;;;;13.40;12.10;;;;;;;2.91;100.00;97549.85;105342;1268;61284;-74
2022/04/05 05:08:24;;;;;;;12.90;11.30;;;;;;;2.93;100.00;97557.42;105357;1267;61302;-72
2022/04/05 05:10:51;;;;;;;12.30;11.20;;;;;;;2.95;100.00;97557.66;105321;1268;75361;-73
2022/04/05 05:13:17;;;;;;;13.20;11.90;;;;;;;2.98;100.00;97557.01;105268;1268;68754;-73
2022/04/05 05:15:44;;;;;;;11.60;10.50;;;;;;;3.00;100.00;97564.70;105362;1268;74528;-73
2022/04/05 05:18:11;;;;;;;12.30;11.10;;;;;;;3.03;100.00;97562.63;105331;1268;61406;-73
2022/04/05 05:20:38;;;;;;;12.00;10.80;;;;;;;3.04;100.00;97564.48;105329;1268;61217;-74
2022/04/05 05:23:05;;;;;;;12.20;11.10;;;;;;;3.05;100.00;97563.40;105273;1268;75348;-73
2022/04/05 05:25:32;;;;;;;12.50;11.30;;;;;;;3.06;100.00;97565.73;105349;1268;70523;-72
2022/04/05 05:27:59;;;;;;;14.10;12.50;;;;;;;3.08;100.00;97569.70;105331;1268;71610;-73
2022/04/05 05:30:26;;;;;;;13.80;12.30;;;;;;;3.08;100.00;97566.55;105327;1268;61378;-73
2022/04/05 05:32:53;;;;;;;14.30;11.90;;;;;;;3.11;100.00;97568.29;105347;1268;61928;-73
2022/04/05 05:35:21;;;;;;;16.50;14.80;;;;;;;3.14;100.00;97575.31;105104;1268;75284;-73
2022/04/05 05:37:49;;;;;;;14.70;13.10;;;;;;;3.16;100.00;97575.73;105356;1268;69788;-72
2022/04/05 05:40:17;;;;;;;12.30;11.00;;;;;;;3.17;100.00;97577.77;105472;1268;73271;-73
2022/04/05 05:42:50;;;;;;;14.00;12.50;;;;;;;3.21;100.00;97582.46;105421;1268;61371;-73
2022/04/05 05:45:17;;;;;;;13.50;12.00;;;;;;;3.26;100.00;97577.38;105145;1268;61561;-73
2022/04/05 05:47:44;;;;;;;13.10;11.80;;;;;;;3.32;100.00;97577.94;105320;1268;75429;-73
2022/04/05 05:50:13;;;;;;;13.90;12.30;;;;;;;3.36;100.00;97579.45;105337;1268;69812;-73
2022/04/05 05:52:41;;;;;;;13.40;11.70;;;;;;;3.39;100.00;97582.44;105210;1268;74513;-73
2022/04/05 05:55:12;;;;;;;13.90;11.90;;;;;;;3.40;100.00;97585.85;105314;1268;61234;-73
2022/04/05 05:57:39;;;;;;;12.60;11.30;;;;;;;3.41;100.00;97585.80;105347;1268;61677;-72
2022/04/05 06:00:09;;;;;;;11.50;10.40;;;;;;;3.42;100.00;97588.89;105279;1268;76325;-73
2022/04/05 06:02:39;;;;;;;11.50;10.30;;;;;;;3.44;100.00;97595.96;105331;1268;69408;-73
2022/04/05 06:05:07;;;;;;;10.90;9.80;;;;;;;3.48;100.00;97596.45;105309;1268;73700;-72
2022/04/05 06:07:35;;;;;;;10.20;9.20;;;;;;;3.51;100.00;97597.81;105325;1268;61278;-72
2022/04/05 06:10:06;;;;;;;12.30;11.10;;;;;;;3.56;100.00;97598.61;105380;1268;61219;-73
2022/04/05 06:12:36;;;;;;;11.60;10.50;;;;;;;3.57;100.00;97600.45;105316;1268;75355;-73
2022/04/05 06:15:04;;;;;;;11.70;10.50;;;;;;;3.58;100.00;97601.63;104638;1268;1003454;-72
2022/04/05 06:17:30;;;;;;;11.80;10.70;;;;;;;3.57;100.00;97604.19;105096;1268;74287;-74
2022/04/05 06:19:57;;;;;;;11.70;10.30;;;;;;;3.56;100.00;97605.13;105321;1268;61259;-73
2022/04/05 06:22:24;;;;;;;10.30;9.30;;;;;;;3.55;100.00;97603.23;105364;1268;62021;-73
2022/04/05 06:24:51;;;;;;;10.70;9.40;;;;;;;3.51;100.00;97607.98;105355;1268;74980;-73
2022/04/05 06:27:19;;;;;;;11.10;10.00;;;;;;;3.50;100.00;97603.35;105346;1268;69338;-73
2022/04/05 06:29:45;;;;;;;10.80;9.70;;;;;;;3.48;100.00;97609.78;105347;1268;73893;-73
2022/04/05 06:32:12;;;;;;;13.70;12.30;;;;;;;3.46;100.00;97613.58;105321;1268;61271;-72
2022/04/05 06:34:38;;;;;;;10.60;9.40;;;;;;;3.42;100.00;97619.27;105360;1268;61494;-73
2022/04/05 06:37:05;;;;;;;10.20;8.80;;;;;;;3.39;100.00;97615.62;105324;1268;75418;-73
2022/04/05 06:39:31;;;;;;;12.30;10.70;;;;;;;3.38;100.00;97621.30;105343;1268;69390;-73
2022/04/05 06:41:59;;;;;;;12.70;11.10;;;;;;;3.36;100.00;97616.49;105341;1268;72966;-74
2022/04/05 06:44:26;;;;;;;9.50;8.60;;;;;;;3.34;100.00;97618.55;105336;1268;61275;-73
2022/04/05 06:46:52;;;;;;;10.20;9.10;;;;;;;3.33;100.00;97623.48;105353;1268;61263;-73
2022/04/05 06:49:19;;;;;;;9.60;8.60;;;;;;;3.33;100.00;97626.14;105360;1268;75347;-72
2022/04/05 06:51:46;;;;;;;9.30;8.30;;;;;;;3.35;100.00;97624.97;105360;1268;70381;-73
2022/04/05 06:54:12;;;;;;;9.60;8.70;;;;;;;3.36;100.00;97622.59;105334;1268;72848;-73
2022/04/05 06:56:39;;;;;;;10.60;9.50;;;;;;;3.41;100.00;97619.70;105304;1268;61170;-74
2022/04/05 06:59:05;;;;;;;8.40;7.50;;;;;;;3.46;100.00;97632.35;105093;1268;61484;-72
2022/04/05 07:01:32;;;;;;;9.40;8.40;;;;;;;3.51;100.00;97625.94;105334;1268;77012;-73
2022/04/05 07:03:59;;;;;;;10.70;9.60;;;;;;;3.58;100.00;97620.27;105325;1267;70122;-73
2022/04/05 07:06:26;;;;;;;11.00;9.60;;;;;;;3.64;100.00;97626.39;105334;1268;74297;-73
2022/04/05 07:08:53;;;;;;;12.20;10.40;;;;;;;3.71;100.00;97626.97;105306;1268;61376;-72
2022/04/05 07:11:20;;;;;;;11.10;9.00;;;;;;;3.77;100.00;97617.67;105305;1268;61201;-72
2022/04/05 07:13:47;;;;;;;10.20;8.10;;;;;;;3.84;100.00;97619.20;105029;1268;75872;-73
2022/04/05 07:16:14;;;;;;;8.90;8.00;;;;;;;3.89;100.00;97621.14;105329;1268;68536;-73
2022/04/05 07:18:40;;;;;;;9.80;8.50;;;;;;;3.98;100.00;97619.02;105356;1268;74414;-72
2022/04/05 07:21:08;;;;;;;9.00;8.00;;;;;;;4.07;100.00;97614.40;105296;1268;61377;-73
2022/04/05 07:23:36;;;;;;;7.90;6.80;;;;;;;4.15;100.00;97624.27;105337;1268;62928;-73
2022/04/05 07:26:04;;;;;;;7.30;6.30;;;;;;;4.24;100.00;97621.40;105325;1268;75006;-73
2022/04/05 07:28:30;;;;;;;8.00;7.00;;;;;;;4.32;100.00;97622.33;105331;1268;70426;-73
2022/04/05 07:30:57;;;;;;;8.00;6.70;;;;;;;4.41;100.00;97624.41;105105;1268;72972;-73
2022/04/05 07:33:24;;;;;;;7.00;6.30;;;;;;;4.52;100.00;97622.63;105320;1268;61221;-72
2022/04/05 07:35:51;;;;;;;7.40;6.70;;;;;;;4.60;100.00;97619.81;105490;1268;61256;-73
2022/04/05 07:38:18;;;;;;;5.90;5.30;;;;;;;4.62;100.00;97625.13;105345;1268;76240;-73
2022/04/05 07:40:48;;;;;;;5.10;4.70;;;;;;;4.62;100.00;97624.98;105346;1268;68648;-73
2022/04/05 07:43:17;;;;;;;5.00;4.60;;;;;;;4.65;100.00;97623.93;105348;1268;74283;-74
2022/04/05 07:45:44;;;;;;;6.00;5.20;;;;;;;4.67;100.00;97632.39;105460;1268;61441;-73
2022/04/05 07:48:11;;;;;;;6.50;5.90;;;;;;;4.71;100.00;97639.36;105367;1268;61194;-72
2022/04/05 07:50:38;;;;;;;5.30;4.80;;;;;;;4.75;100.00;97638.39;105355;1268;76401;-74
2022/04/05 07:53:04;;;;;;;6.20;4.70;;;;;;;4.74;100.00;97639.66;105411;1268;69416;-72
2022/04/05 07:55:32;;;;;;;7.00;4.70;;;;;;;4.72;100.00;97642.23;105392;1268;73211;-73
2022/04/05 07:57:58;;;;;;;5.80;5.30;;;;;;;4.71;100.00;97649.05;105455;1266;61274;-73
2022/04/05 08:00:26;;;;;;;5.60;5.10;;;;;;;4.72;100.00;97641.91;105423;1268;61164;-73
2022/04/05 08:02:53;;;;;;;5.80;5.20;;;;;;;4.76;100.00;97650.11;105294;1268;76510;-73
2022/04/05 08:05:20;;;;;;;5.90;4.50;;;;;;;4.77;100.00;97651.41;105524;1268;70043;-75
2022/04/05 08:07:46;;;;;;;5.90;5.40;;;;;;;4.82;100.00;97650.05;105456;1268;73327;-73
2022/04/05 08:10:14;;;;;;;6.30;5.10;;;;;;;4.93;100.00;97651.86;105436;1268;61381;-73
2022/04/05 08:12:43;;;;;;;6.20;5.40;;;;;;;5.01;100.00;97655.66;105663;1268;62064;-73
2022/04/05 08:15:12;;;;;;;5.70;5.20;;;;;;;5.12;100.00;97661.12;105378;1268;76699;-73
2022/04/05 08:17:38;;;;;;;6.80;5.80;;;;;;;5.22;100.00;97653.92;105175;1268;68883;-73
2022/04/05 08:20:07;;;;;;;6.90;6.20;;;;;;;5.31;100.00;97652.51;105402;1268;73962;-72
2022/04/05 08:22:33;;;;;;;5.90;5.00;;;;;;;5.36;100.00;97655.98;105477;1268;61419;-72
2022/04/05 08:25:00;;;;;;;5.70;5.20;;;;;;;5.37;100.00;97651.39;105406;1268;62037;-72
2022/04/05 08:27:27;;;;;;;6.20;4.80;;;;;;;5.37;100.00;97655.23;105388;1268;76269;-74
2022/04/05 08:29:53;;;;;;;8.20;7.40;;;;;;;5.42;100.00;97654.91;105392;1268;69069;-72
2022/04/05 08:32:20;;;;;;;6.20;5.60;;;;;;;5.49;100.00;97652.80;105150;1268;72347;-72
2022/04/05 08:34:47;;;;;;;10.80;8.60;;;;;;;5.60;100.00;97654.90;105293;1267;61337;-72
2022/04/05 08:37:14;;;;;;;34.90;24.60;;;;;;;5.70;100.00;97655.64;105465;1267;61221;-73
2022/04/05 08:39:41;;;;;;;22.90;17.90;;;;;;;5.77;100.00;97657.98;105366;1268;76715;-73
2022/04/05 08:42:09;;;;;;;13.40;10.20;;;;;;;5.79;100.00;97652.76;105338;1267;70787;-73
2022/04/05 08:44:36;;;;;;;11.40;9.30;;;;;;;5.84;100.00;97657.49;105355;1268;74157;-73
2022/04/05 08:47:04;;;;;;;6.70;6.00;;;;;;;5.83;100.00;97661.23;105346;1267;61259;-71
2022/04/05 08:49:31;;;;;;;7.20;6.30;;;;;;;5.82;100.00;97665.38;105330;1268;61263;-72
2022/04/05 08:51:58;;;;;;;8.00;6.90;;;;;;;5.87;100.00;97665.21;105104;1268;74889;-72
2022/04/05 08:54:25;;;;;;;6.90;6.30;;;;;;;5.98;100.00;97674.40;105089;1268;69541;-73
2022/04/05 08:56:51;;;;;;;7.90;7.10;;;;;;;6.03;100.00;97670.67;105423;1268;73274;-73
2022/04/05 08:59:18;;;;;;;5.90;5.20;;;;;;;6.08;100.00;97664.52;105139;1269;61353;-73
2022/04/05 09:01:45;;;;;;;6.30;5.70;;;;;;;6.12;100.00;97675.88;105450;1268;61895;-72
2022/04/05 09:04:11;;;;;;;6.40;5.80;;;;;;;6.15;100.00;97684.78;105050;1271;75441;-73
2022/04/05 09:06:38;;;;;;;6.80;6.10;;;;;;;6.13;100.00;97676.83;105393;1268;70850;-74
2022/04/05 09:09:13;;;;;;;5.10;4.70;;;;;;;6.19;100.00;97675.19;105406;1268;74446;-72
2022/04/05 09:11:45;;;;;;;5.40;4.90;;;;;;;6.23;100.00;97680.70;105365;1268;61345;-72
2022/04/05 09:14:11;;;;;;;5.20;4.70;;;;;;;6.27;100.00;97680.26;105178;1269;62439;-72
2022/04/05 09:16:38;;;;;;;5.10;4.60;;;;;;;6.26;100.00;97679.63;105338;1268;76316;-73
2022/04/05 09:19:13;;;;;;;4.60;4.20;;;;;;;6.23;100.00;97673.13;105369;1268;69789;-72
2022/04/05 09:21:56;;;;;;;4.30;3.90;;;;;;;6.19;100.00;97674.11;105561;1268;73141;-73
2022/04/05 09:24:36;;;;;;;5.30;4.80;;;;;;;6.18;100.00;97670.33;105419;1268;61268;-73
2022/04/05 09:27:04;;;;;;;5.10;4.70;;;;;;;6.20;100.00;97674.20;105405;1268;61396;-73
2022/04/05 09:29:37;;;;;;;7.50;6.70;;;;;;;6.29;100.00;97678.38;105386;1268;76446;-73
2022/04/05 09:32:04;;;;;;;5.60;5.10;;;;;;;6.36;100.00;97679.09;105396;1268;69343;-68
2022/04/05 09:34:31;;;;;;;4.90;4.40;;;;;;;6.40;100.00;97684.48;104687;1269;74006;-69
2022/04/05 09:37:08;;;;;;;4.40;4.00;;;;;;;6.38;100.00;97686.20;104951;1268;61335;-69
2022/04/05 09:39:35;;;;;;;4.20;3.80;;;;;;;6.38;100.00;97684.08;105104;1268;61872;-69
2022/04/05 09:42:08;;;;;;;5.20;4.60;;;;;;;6.42;100.00;97685.37;104964;1268;76415;-70
2022/04/05 09:44:38;;;;;;;5.10;4.60;;;;;;;6.51;100.00;97682.80;105198;1267;70339;-69
2022/04/05 09:47:11;;;;;;;5.90;5.30;;;;;;;6.57;100.00;97681.83;105157;1268;74430;-69
2022/04/05 09:49:40;;;;;;;5.30;4.80;;;;;;;6.61;100.00;97686.83;105062;1268;61357;-69
2022/04/05 09:52:30;;;;;;;6.80;4.50;;;;;;;6.71;100.00;97683.33;105020;1268;61411;-70
2022/04/05 09:55:11;;;;;;;5.00;4.60;;;;;;;6.89;100.00;97676.70;105038;1268;75565;-70
2022/04/05 09:57:38;;;;;;;4.40;4.00;;;;;;;7.08;100.00;97673.35;105236;1268;69519;-68
2022/04/05 10:00:19;;;;;;;4.40;4.00;;;;;;;7.22;100.00;97684.15;105078;1268;74556;-69
2022/04/05 10:03:02;;;;;;;5.10;4.70;;;;;;;7.46;100.00;97686.22;105018;1268;61262;-70
2022/04/05 10:05:30;;;;;;;5.50;4.60;;;;;;;7.67;100.00;97679.13;105049;1268;61678;-70
2022/04/05 10:07:57;;;;;;;6.70;4.60;;;;;;;7.92;100.00;97674.39;105031;1268;76303;-69
2022/04/05 10:10:25;;;;;;;5.00;4.50;;;;;;;8.23;100.00;97673.05;104946;1268;70399;-70
2022/04/05 10:12:52;;;;;;;6.10;5.50;;;;;;;8.56;100.00;97678.65;104830;1269;73451;-68
2022/04/05 10:15:21;;;;;;;6.00;5.30;;;;;;;8.75;100.00;97680.65;105137;1268;61394;-70
2022/04/05 10:17:53;;;;;;;6.70;6.00;;;;;;;8.80;100.00;97684.16;105019;1268;61349;-70
2022/04/05 10:20:20;;;;;;;4.50;4.10;;;;;;;8.86;100.00;97689.02;104926;1268;75979;-69
2022/04/05 10:22:53;;;;;;;5.60;5.10;;;;;;;8.80;100.00;97688.21;104941;1268;68941;-69
2022/04/05 10:25:21;;;;;;;5.30;4.80;;;;;;;8.77;100.00;97687.23;105098;1268;73909;-70
2022/04/05 10:27:49;;;;;;;5.60;5.00;;;;;;;8.77;100.00;97684.04;105386;1267;61258;-69
2022/04/05 10:30:21;;;;;;;6.30;5.70;;;;;;;8.80;100.00;97684.49;105267;1269;62389;-71
2022/04/05 10:33:00;;;;;;;4.60;4.10;;;;;;;8.88;100.00;97687.92;105460;1268;73560;-70
2022/04/05 10:35:29;;;;;;;4.70;4.30;;;;;;;8.98;100.00;97694.59;105375;1268;69485;-70
2022/04/05 10:38:20;;;;;;;4.50;4.10;;;;;;;9.07;100.00;97695.59;105265;1268;74502;-70
2022/04/05 10:41:05;;;;;;;;;;;;;;;9.05;100.00;97699.88;105380;1268;61560;-69
2022/04/05 10:43:32;;;;;;;4.50;4.10;;;;;;;8.87;100.00;97696.04;105380;1268;61601;-72
2022/04/05 10:45:59;;;;;;;4.60;3.70;;;;;;;8.78;100.00;97706.95;105457;1268;75516;-78
2022/04/05 10:48:28;;;;;;;4.30;3.90;;;;;;;8.69;100.00;97702.76;105978;1267;69368;-78
2022/04/05 10:51:01;;;;;;;5.20;4.70;;;;;;;8.73;100.00;97708.11;105347;1271;71470;-77
2022/04/05 10:53:38;;;;;;;5.00;4.50;;;;;;;8.87;100.00;97702.71;105424;1268;61275;-77
2022/04/05 10:56:10;;;;;;;4.70;4.30;;;;;;;8.99;100.00;97701.56;105206;1268;61415;-70
2022/04/05 10:58:47;;;;;;;5.20;4.80;;;;;;;9.15;100.00;97702.25;105541;1268;75457;-72
2022/04/05 11:01:18;;;;;;;5.30;4.80;;;;;;;9.39;100.00;97701.30;105469;1268;69600;-70
2022/04/05 11:04:09;;;;;;;4.60;4.20;;;;;;;9.58;100.00;97708.37;105552;1268;74450;-70
2022/04/05 11:06:58;;;;;;;4.70;4.20;;;;;;;9.63;99.98;97713.08;105394;1268;61292;-71
2022/04/05 11:09:25;;;;;;;6.00;5.00;;;;;;;9.72;99.95;97705.49;105408;1268;62040;-81
2022/04/05 11:11:54;;;;;;;4.80;4.30;;;;;;;9.80;100.00;97712.97;105645;1268;74558;-79
2022/04/05 11:14:54;;;;;;;4.50;4.20;;;;;;;9.69;98.98;97714.80;105789;1268;69357;-81
2022/04/05 11:17:25;;;;;;;5.50;4.80;;;;;;;9.50;99.49;97720.08;105177;1276;74416;-80
2022/04/05 11:19:55;;;;;;;5.20;4.40;;;;;;;9.26;99.99;97719.73;105192;1276;61334;-80
2022/04/05 11:22:22;;;;;;;4.90;4.50;;;;;;;9.08;100.00;97724.58;105108;1276;62110;-75